sensor_id;sensor_type;location;lat;lon;timestamp;P1;durP1;ratioP1;P2;durP2;ratioP2
26201;SDS011;13944;28.562;77.188;2022-10-31T00:00:42;341.30;;;261.37;;
26201;SDS011;13944;28.562;77.188;2022-10-31T00:03:08;334.03;;;253.73;;
26201;SDS011;13944;28.562;77.188;2022-10-31T00:05:35;328.63;;;246.43;;
26201;SDS011;13944;28.562;77.188;2022-10-31T00:08:01;338.90;;;251.47;;
26201;SDS011;13944;28.562;77.188;2022-10-31T00:10:28;345.33;;;257.63;;
26201;SDS011;13944;28.562;77.188;2022-10-31T00:12:57;356.47;;;260.37;;
26201;SDS011;13944;28.562;77.188;2022-10-31T00:15:24;344.97;;;261.63;;
26201;SDS011;13944;28.562;77.188;2022-10-31T00:17:50;347.50;;;250.47;;
26201;SDS011;13944;28.562;77.188;2022-10-31T00:20:17;326.20;;;240.47;;
26201;SDS011;13944;28.562;77.188;2022-10-31T00:22:43;329.00;;;245.17;;
26201;SDS011;13944;28.562;77.188;2022-10-31T00:25:10;334.40;;;246.73;;
26201;SDS011;13944;28.562;77.188;2022-10-31T00:27:36;327.27;;;246.87;;
26201;SDS011;13944;28.562;77.188;2022-10-31T00:30:03;323.43;;;239.80;;
26201;SDS011;13944;28.562;77.188;2022-10-31T00:32:29;325.70;;;243.47;;
26201;SDS011;13944;28.562;77.188;2022-10-31T00:34:56;322.57;;;244.53;;
26201;SDS011;13944;28.562;77.188;2022-10-31T00:37:22;328.00;;;241.37;;
26201;SDS011;13944;28.562;77.188;2022-10-31T00:39:49;318.50;;;239.00;;
26201;SDS011;13944;28.562;77.188;2022-10-31T00:42:15;330.43;;;241.70;;
26201;SDS011;13944;28.562;77.188;2022-10-31T00:44:42;328.93;;;242.50;;
26201;SDS011;13944;28.562;77.188;2022-10-31T00:47:08;321.43;;;241.33;;
26201;SDS011;13944;28.562;77.188;2022-10-31T00:49:35;317.03;;;238.47;;
26201;SDS011;13944;28.562;77.188;2022-10-31T00:52:01;324.33;;;234.77;;
26201;SDS011;13944;28.562;77.188;2022-10-31T00:54:28;321.07;;;239.23;;
26201;SDS011;13944;28.562;77.188;2022-10-31T00:56:56;315.00;;;239.43;;
26201;SDS011;13944;28.562;77.188;2022-10-31T00:59:22;317.70;;;235.13;;
26201;SDS011;13944;28.562;77.188;2022-10-31T01:01:49;332.10;;;239.97;;
26201;SDS011;13944;28.562;77.188;2022-10-31T01:04:15;326.47;;;238.43;;
26201;SDS011;13944;28.562;77.188;2022-10-31T01:06:42;345.23;;;243.57;;
26201;SDS011;13944;28.562;77.188;2022-10-31T01:09:08;339.77;;;242.83;;
26201;SDS011;13944;28.562;77.188;2022-10-31T01:11:35;354.57;;;246.23;;
26201;SDS011;13944;28.562;77.188;2022-10-31T01:14:01;342.57;;;246.23;;
26201;SDS011;13944;28.562;77.188;2022-10-31T01:16:28;344.90;;;244.67;;
26201;SDS011;13944;28.562;77.188;2022-10-31T01:18:56;336.80;;;247.97;;
26201;SDS011;13944;28.562;77.188;2022-10-31T01:21:23;341.47;;;242.57;;
26201;SDS011;13944;28.562;77.188;2022-10-31T01:23:50;338.50;;;235.60;;
26201;SDS011;13944;28.562;77.188;2022-10-31T01:28:49;333.03;;;215.50;;
26201;SDS011;13944;28.562;77.188;2022-10-31T01:31:17;327.00;;;232.70;;
26201;SDS011;13944;28.562;77.188;2022-10-31T01:33:48;324.07;;;235.47;;
26201;SDS011;13944;28.562;77.188;2022-10-31T01:36:19;320.87;;;230.33;;
26201;SDS011;13944;28.562;77.188;2022-10-31T01:38:46;320.83;;;231.83;;
26201;SDS011;13944;28.562;77.188;2022-10-31T01:41:14;324.63;;;231.83;;
26201;SDS011;13944;28.562;77.188;2022-10-31T01:46:13;309.07;;;230.90;;
26201;SDS011;13944;28.562;77.188;2022-10-31T01:48:40;333.77;;;232.63;;
26201;SDS011;13944;28.562;77.188;2022-10-31T01:51:07;338.97;;;243.63;;
26201;SDS011;13944;28.562;77.188;2022-10-31T01:53:34;319.43;;;239.87;;
26201;SDS011;13944;28.562;77.188;2022-10-31T01:56:01;317.93;;;240.63;;
26201;SDS011;13944;28.562;77.188;2022-10-31T01:58:28;333.23;;;245.93;;
26201;SDS011;13944;28.562;77.188;2022-10-31T02:00:58;336.33;;;245.40;;
26201;SDS011;13944;28.562;77.188;2022-10-31T02:03:25;353.43;;;253.40;;
26201;SDS011;13944;28.562;77.188;2022-10-31T02:05:54;349.80;;;253.90;;
26201;SDS011;13944;28.562;77.188;2022-10-31T02:08:23;349.80;;;259.13;;
26201;SDS011;13944;28.562;77.188;2022-10-31T02:10:52;334.03;;;248.87;;
26201;SDS011;13944;28.562;77.188;2022-10-31T02:13:19;334.73;;;243.67;;
26201;SDS011;13944;28.562;77.188;2022-10-31T02:15:47;351.97;;;246.73;;
26201;SDS011;13944;28.562;77.188;2022-10-31T02:18:13;357.73;;;235.23;;
26201;SDS011;13944;28.562;77.188;2022-10-31T02:31:15;331.30;;;225.47;;
26201;SDS011;13944;28.562;77.188;2022-10-31T02:33:54;305.87;;;219.17;;
26201;SDS011;13944;28.562;77.188;2022-10-31T02:38:54;304.30;;;215.60;;
26201;SDS011;13944;28.562;77.188;2022-10-31T02:41:39;290.07;;;205.57;;
26201;SDS011;13944;28.562;77.188;2022-10-31T02:49:21;258.00;;;184.63;;
26201;SDS011;13944;28.562;77.188;2022-10-31T02:51:49;259.73;;;177.03;;
26201;SDS011;13944;28.562;77.188;2022-10-31T02:54:19;245.17;;;165.63;;
26201;SDS011;13944;28.562;77.188;2022-10-31T02:56:47;239.97;;;163.67;;
26201;SDS011;13944;28.562;77.188;2022-10-31T02:59:17;240.60;;;164.37;;
26201;SDS011;13944;28.562;77.188;2022-10-31T03:02:00;248.70;;;161.10;;
26201;SDS011;13944;28.562;77.188;2022-10-31T03:04:31;228.80;;;155.23;;
26201;SDS011;13944;28.562;77.188;2022-10-31T03:20:26;221.50;;;152.77;;
26201;SDS011;13944;28.562;77.188;2022-10-31T03:22:57;221.13;;;145.80;;
26201;SDS011;13944;28.562;77.188;2022-10-31T03:25:25;210.27;;;141.37;;
26201;SDS011;13944;28.562;77.188;2022-10-31T03:27:52;199.97;;;134.00;;
26201;SDS011;13944;28.562;77.188;2022-10-31T03:30:20;219.47;;;141.57;;
26201;SDS011;13944;28.562;77.188;2022-10-31T03:32:51;216.77;;;142.50;;
26201;SDS011;13944;28.562;77.188;2022-10-31T03:35:19;220.73;;;135.20;;
26201;SDS011;13944;28.562;77.188;2022-10-31T03:37:47;221.43;;;134.83;;
26201;SDS011;13944;28.562;77.188;2022-10-31T03:40:14;210.83;;;129.97;;
26201;SDS011;13944;28.562;77.188;2022-10-31T03:42:43;221.87;;;134.33;;
26201;SDS011;13944;28.562;77.188;2022-10-31T03:45:13;208.40;;;128.40;;
26201;SDS011;13944;28.562;77.188;2022-10-31T03:47:41;202.23;;;129.13;;
26201;SDS011;13944;28.562;77.188;2022-10-31T03:50:09;212.77;;;129.40;;
26201;SDS011;13944;28.562;77.188;2022-10-31T03:52:41;202.70;;;127.07;;
26201;SDS011;13944;28.562;77.188;2022-10-31T03:57:40;185.03;;;129.13;;
26201;SDS011;13944;28.562;77.188;2022-10-31T04:00:11;198.83;;;127.63;;
26201;SDS011;13944;28.562;77.188;2022-10-31T04:02:40;178.73;;;123.87;;
26201;SDS011;13944;28.562;77.188;2022-10-31T04:05:07;189.13;;;123.28;;
26201;SDS011;13944;28.562;77.188;2022-10-31T04:07:36;181.35;;;128.50;;
26201;SDS011;13944;28.562;77.188;2022-10-31T04:10:04;172.93;;;121.10;;
26201;SDS011;13944;28.562;77.188;2022-10-31T04:12:32;178.75;;;118.55;;
26201;SDS011;13944;28.562;77.188;2022-10-31T04:15:00;178.23;;;124.57;;
26201;SDS011;13944;28.562;77.188;2022-10-31T04:17:28;177.93;;;122.93;;
26201;SDS011;13944;28.562;77.188;2022-10-31T04:19:58;204.15;;;123.25;;
26201;SDS011;13944;28.562;77.188;2022-10-31T04:22:25;176.02;;;120.78;;
26201;SDS011;13944;28.562;77.188;2022-10-31T04:24:52;182.52;;;121.60;;
26201;SDS011;13944;28.562;77.188;2022-10-31T04:27:18;188.30;;;122.40;;
26201;SDS011;13944;28.562;77.188;2022-10-31T04:29:45;190.23;;;127.47;;
26201;SDS011;13944;28.562;77.188;2022-10-31T04:32:11;187.80;;;121.50;;
26201;SDS011;13944;28.562;77.188;2022-10-31T04:34:38;176.65;;;122.53;;
26201;SDS011;13944;28.562;77.188;2022-10-31T04:37:04;170.77;;;118.38;;
26201;SDS011;13944;28.562;77.188;2022-10-31T04:39:31;187.75;;;121.40;;
26201;SDS011;13944;28.562;77.188;2022-10-31T04:41:57;172.93;;;119.00;;
26201;SDS011;13944;28.562;77.188;2022-10-31T04:44:24;182.32;;;119.95;;
26201;SDS011;13944;28.562;77.188;2022-10-31T04:46:51;186.65;;;120.47;;
26201;SDS011;13944;28.562;77.188;2022-10-31T04:49:17;179.77;;;125.27;;
26201;SDS011;13944;28.562;77.188;2022-10-31T04:51:44;186.88;;;129.88;;
26201;SDS011;13944;28.562;77.188;2022-10-31T04:54:10;188.02;;;124.50;;
26201;SDS011;13944;28.562;77.188;2022-10-31T04:56:36;160.52;;;118.07;;
26201;SDS011;13944;28.562;77.188;2022-10-31T04:59:03;178.70;;;119.07;;
26201;SDS011;13944;28.562;77.188;2022-10-31T05:01:29;170.07;;;117.13;;
26201;SDS011;13944;28.562;77.188;2022-10-31T05:03:56;184.48;;;129.75;;
26201;SDS011;13944;28.562;77.188;2022-10-31T05:06:22;189.20;;;129.90;;
26201;SDS011;13944;28.562;77.188;2022-10-31T05:08:49;189.40;;;131.10;;
26201;SDS011;13944;28.562;77.188;2022-10-31T05:11:15;177.48;;;126.60;;
26201;SDS011;13944;28.562;77.188;2022-10-31T05:13:42;192.40;;;136.38;;
26201;SDS011;13944;28.562;77.188;2022-10-31T05:16:08;190.35;;;141.50;;
26201;SDS011;13944;28.562;77.188;2022-10-31T05:18:35;183.55;;;129.13;;
26201;SDS011;13944;28.562;77.188;2022-10-31T05:21:02;191.55;;;128.80;;
26201;SDS011;13944;28.562;77.188;2022-10-31T05:23:28;198.25;;;137.38;;
26201;SDS011;13944;28.562;77.188;2022-10-31T05:25:55;206.32;;;140.35;;
26201;SDS011;13944;28.562;77.188;2022-10-31T05:28:21;209.75;;;149.98;;
26201;SDS011;13944;28.562;77.188;2022-10-31T05:30:48;207.40;;;146.02;;
26201;SDS011;13944;28.562;77.188;2022-10-31T05:33:15;211.82;;;147.02;;
26201;SDS011;13944;28.562;77.188;2022-10-31T05:35:41;211.48;;;144.07;;
26201;SDS011;13944;28.562;77.188;2022-10-31T05:38:08;216.68;;;144.30;;
26201;SDS011;13944;28.562;77.188;2022-10-31T05:40:35;201.07;;;136.57;;
26201;SDS011;13944;28.562;77.188;2022-10-31T05:43:01;209.35;;;144.95;;
26201;SDS011;13944;28.562;77.188;2022-10-31T05:45:27;217.85;;;149.18;;
26201;SDS011;13944;28.562;77.188;2022-10-31T05:47:55;211.88;;;146.45;;
26201;SDS011;13944;28.562;77.188;2022-10-31T05:50:22;206.95;;;146.70;;
26201;SDS011;13944;28.562;77.188;2022-10-31T05:52:59;222.25;;;151.95;;
26201;SDS011;13944;28.562;77.188;2022-10-31T05:55:26;225.50;;;151.27;;
26201;SDS011;13944;28.562;77.188;2022-10-31T05:57:53;231.73;;;154.23;;
26201;SDS011;13944;28.562;77.188;2022-10-31T06:00:20;240.25;;;156.63;;
26201;SDS011;13944;28.562;77.188;2022-10-31T06:02:47;223.07;;;153.40;;
26201;SDS011;13944;28.562;77.188;2022-10-31T06:05:14;244.85;;;160.40;;
26201;SDS011;13944;28.562;77.188;2022-10-31T06:07:41;219.13;;;151.48;;
26201;SDS011;13944;28.562;77.188;2022-10-31T06:10:08;231.15;;;159.07;;
26201;SDS011;13944;28.562;77.188;2022-10-31T06:12:35;249.88;;;175.38;;
26201;SDS011;13944;28.562;77.188;2022-10-31T06:15:06;227.18;;;158.63;;
26201;SDS011;13944;28.562;77.188;2022-10-31T06:17:33;253.32;;;170.35;;
26201;SDS011;13944;28.562;77.188;2022-10-31T06:20:00;286.92;;;178.52;;
26201;SDS011;13944;28.562;77.188;2022-10-31T06:22:26;259.20;;;161.85;;
26201;SDS011;13944;28.562;77.188;2022-10-31T06:24:53;245.45;;;167.73;;
26201;SDS011;13944;28.562;77.188;2022-10-31T06:27:19;251.02;;;170.77;;
26201;SDS011;13944;28.562;77.188;2022-10-31T06:29:46;235.82;;;161.10;;
26201;SDS011;13944;28.562;77.188;2022-10-31T06:32:16;227.95;;;153.75;;
26201;SDS011;13944;28.562;77.188;2022-10-31T06:34:42;254.45;;;169.63;;
26201;SDS011;13944;28.562;77.188;2022-10-31T06:37:10;247.55;;;158.15;;
26201;SDS011;13944;28.562;77.188;2022-10-31T06:39:37;234.75;;;161.68;;
26201;SDS011;13944;28.562;77.188;2022-10-31T06:42:03;239.00;;;169.10;;
26201;SDS011;13944;28.562;77.188;2022-10-31T06:44:33;237.80;;;170.25;;
26201;SDS011;13944;28.562;77.188;2022-10-31T06:46:59;225.35;;;159.63;;
26201;SDS011;13944;28.562;77.188;2022-10-31T06:49:26;233.80;;;166.75;;
26201;SDS011;13944;28.562;77.188;2022-10-31T06:51:52;239.95;;;166.45;;
26201;SDS011;13944;28.562;77.188;2022-10-31T06:54:19;232.40;;;162.38;;
26201;SDS011;13944;28.562;77.188;2022-10-31T06:56:46;233.07;;;163.95;;
26201;SDS011;13944;28.562;77.188;2022-10-31T06:59:13;245.02;;;165.77;;
26201;SDS011;13944;28.562;77.188;2022-10-31T07:01:40;235.55;;;157.30;;
26201;SDS011;13944;28.562;77.188;2022-10-31T07:04:09;273.88;;;181.65;;
26201;SDS011;13944;28.562;77.188;2022-10-31T07:06:36;235.55;;;161.13;;
26201;SDS011;13944;28.562;77.188;2022-10-31T07:09:03;251.38;;;166.07;;
26201;SDS011;13944;28.562;77.188;2022-10-31T07:11:29;270.33;;;177.32;;
26201;SDS011;13944;28.562;77.188;2022-10-31T07:13:56;249.18;;;169.07;;
26201;SDS011;13944;28.562;77.188;2022-10-31T07:16:22;254.35;;;175.30;;
26201;SDS011;13944;28.562;77.188;2022-10-31T07:18:49;242.25;;;163.23;;
26201;SDS011;13944;28.562;77.188;2022-10-31T07:21:15;237.15;;;168.32;;
26201;SDS011;13944;28.562;77.188;2022-10-31T07:23:42;253.23;;;176.32;;
26201;SDS011;13944;28.562;77.188;2022-10-31T07:26:09;251.05;;;173.63;;
26201;SDS011;13944;28.562;77.188;2022-10-31T07:28:35;245.27;;;166.93;;
26201;SDS011;13944;28.562;77.188;2022-10-31T07:31:02;228.07;;;158.05;;
26201;SDS011;13944;28.562;77.188;2022-10-31T07:33:28;253.13;;;174.75;;
26201;SDS011;13944;28.562;77.188;2022-10-31T07:35:55;251.80;;;181.38;;
26201;SDS011;13944;28.562;77.188;2022-10-31T07:38:22;256.15;;;182.63;;
26201;SDS011;13944;28.562;77.188;2022-10-31T07:40:52;244.40;;;177.23;;
26201;SDS011;13944;28.562;77.188;2022-10-31T07:43:18;259.80;;;189.30;;
26201;SDS011;13944;28.562;77.188;2022-10-31T07:45:50;267.95;;;191.43;;
26201;SDS011;13944;28.562;77.188;2022-10-31T07:48:17;270.48;;;191.65;;
26201;SDS011;13944;28.562;77.188;2022-10-31T07:50:43;255.25;;;184.90;;
26201;SDS011;13944;28.562;77.188;2022-10-31T07:53:10;264.80;;;189.40;;
26201;SDS011;13944;28.562;77.188;2022-10-31T07:55:37;260.00;;;188.65;;
26201;SDS011;13944;28.562;77.188;2022-10-31T07:58:06;247.23;;;181.00;;
26201;SDS011;13944;28.562;77.188;2022-10-31T08:00:33;240.20;;;177.70;;
26201;SDS011;13944;28.562;77.188;2022-10-31T08:03:04;271.23;;;192.15;;
26201;SDS011;13944;28.562;77.188;2022-10-31T08:05:31;261.27;;;192.95;;
26201;SDS011;13944;28.562;77.188;2022-10-31T08:07:58;289.98;;;204.85;;
26201;SDS011;13944;28.562;77.188;2022-10-31T08:10:25;277.63;;;207.20;;
26201;SDS011;13944;28.562;77.188;2022-10-31T08:13:25;274.90;;;203.48;;
26201;SDS011;13944;28.562;77.188;2022-10-31T08:15:45;272.05;;;207.30;;
26201;SDS011;13944;28.562;77.188;2022-10-31T08:18:15;271.00;;;207.18;;
26201;SDS011;13944;28.562;77.188;2022-10-31T08:20:42;278.98;;;206.23;;
26201;SDS011;13944;28.562;77.188;2022-10-31T08:23:10;271.42;;;193.68;;
26201;SDS011;13944;28.562;77.188;2022-10-31T08:25:36;280.98;;;206.05;;
26201;SDS011;13944;28.562;77.188;2022-10-31T08:28:03;258.80;;;196.00;;
26201;SDS011;13944;28.562;77.188;2022-10-31T08:30:30;278.40;;;212.90;;
26201;SDS011;13944;28.562;77.188;2022-10-31T08:33:04;287.63;;;216.63;;
26201;SDS011;13944;28.562;77.188;2022-10-31T08:35:32;303.85;;;227.77;;
26201;SDS011;13944;28.562;77.188;2022-10-31T08:37:59;260.85;;;189.07;;
26201;SDS011;13944;28.562;77.188;2022-10-31T08:40:26;261.88;;;188.65;;
26201;SDS011;13944;28.562;77.188;2022-10-31T08:42:56;267.77;;;196.43;;
26201;SDS011;13944;28.562;77.188;2022-10-31T08:45:23;276.17;;;203.00;;
26201;SDS011;13944;28.562;77.188;2022-10-31T08:47:50;296.40;;;223.18;;
26201;SDS011;13944;28.562;77.188;2022-10-31T08:50:17;294.48;;;224.38;;
26201;SDS011;13944;28.562;77.188;2022-10-31T08:52:43;292.33;;;219.60;;
26201;SDS011;13944;28.562;77.188;2022-10-31T08:55:10;275.80;;;209.35;;
26201;SDS011;13944;28.562;77.188;2022-10-31T08:57:36;315.42;;;237.75;;
26201;SDS011;13944;28.562;77.188;2022-10-31T09:00:03;299.35;;;228.45;;
26201;SDS011;13944;28.562;77.188;2022-10-31T09:02:30;294.27;;;217.52;;
26201;SDS011;13944;28.562;77.188;2022-10-31T09:04:57;294.30;;;220.05;;
26201;SDS011;13944;28.562;77.188;2022-10-31T09:07:23;276.10;;;202.85;;
26201;SDS011;13944;28.562;77.188;2022-10-31T09:09:50;272.60;;;202.82;;
26201;SDS011;13944;28.562;77.188;2022-10-31T09:12:16;280.38;;;215.30;;
26201;SDS011;13944;28.562;77.188;2022-10-31T09:14:43;295.58;;;217.52;;
26201;SDS011;13944;28.562;77.188;2022-10-31T09:17:09;286.52;;;216.15;;
26201;SDS011;13944;28.562;77.188;2022-10-31T09:19:36;284.70;;;208.77;;
26201;SDS011;13944;28.562;77.188;2022-10-31T09:22:02;289.52;;;217.15;;
26201;SDS011;13944;28.562;77.188;2022-10-31T09:24:30;288.65;;;222.70;;
26201;SDS011;13944;28.562;77.188;2022-10-31T09:26:57;274.27;;;204.93;;
26201;SDS011;13944;28.562;77.188;2022-10-31T09:29:24;277.58;;;210.65;;
26201;SDS011;13944;28.562;77.188;2022-10-31T09:31:50;282.95;;;204.52;;
26201;SDS011;13944;28.562;77.188;2022-10-31T09:34:17;279.10;;;196.07;;
26201;SDS011;13944;28.562;77.188;2022-10-31T09:36:43;291.17;;;213.05;;
26201;SDS011;13944;28.562;77.188;2022-10-31T09:39:11;289.55;;;206.23;;
26201;SDS011;13944;28.562;77.188;2022-10-31T09:44:22;279.20;;;190.95;;
26201;SDS011;13944;28.562;77.188;2022-10-31T09:51:57;264.50;;;191.70;;
26201;SDS011;13944;28.562;77.188;2022-10-31T09:54:46;279.15;;;191.10;;
26201;SDS011;13944;28.562;77.188;2022-10-31T09:57:15;277.15;;;196.98;;
26201;SDS011;13944;28.562;77.188;2022-10-31T09:59:41;245.20;;;169.13;;
26201;SDS011;13944;28.562;77.188;2022-10-31T10:09:38;220.90;;;163.55;;
26201;SDS011;13944;28.562;77.188;2022-10-31T10:14:44;231.07;;;158.65;;
26201;SDS011;13944;28.562;77.188;2022-10-31T10:17:21;232.95;;;162.73;;
26201;SDS011;13944;28.562;77.188;2022-10-31T10:19:58;271.30;;;163.57;;
26201;SDS011;13944;28.562;77.188;2022-10-31T10:27:55;277.08;;;168.40;;
26201;SDS011;13944;28.562;77.188;2022-10-31T10:33:04;275.65;;;169.63;;
26201;SDS011;13944;28.562;77.188;2022-10-31T10:35:38;244.80;;;156.23;;
26201;SDS011;13944;28.562;77.188;2022-10-31T10:40:35;269.20;;;183.27;;
26201;SDS011;13944;28.562;77.188;2022-10-31T10:45:52;247.30;;;164.07;;
26201;SDS011;13944;28.562;77.188;2022-10-31T10:48:42;245.30;;;158.98;;
26201;SDS011;13944;28.562;77.188;2022-10-31T10:51:19;245.20;;;168.48;;
26201;SDS011;13944;28.562;77.188;2022-10-31T10:54:02;220.65;;;163.55;;
26201;SDS011;13944;28.562;77.188;2022-10-31T10:59:10;228.82;;;160.88;;
26201;SDS011;13944;28.562;77.188;2022-10-31T11:01:38;242.68;;;167.52;;
26201;SDS011;13944;28.562;77.188;2022-10-31T11:04:29;260.65;;;176.95;;
26201;SDS011;13944;28.562;77.188;2022-10-31T11:06:57;232.45;;;158.77;;
26201;SDS011;13944;28.562;77.188;2022-10-31T11:09:23;256.75;;;171.13;;
26201;SDS011;13944;28.562;77.188;2022-10-31T11:11:50;249.53;;;178.53;;
26201;SDS011;13944;28.562;77.188;2022-10-31T11:14:19;251.43;;;169.38;;
26201;SDS011;13944;28.562;77.188;2022-10-31T11:16:47;250.95;;;178.70;;
26201;SDS011;13944;28.562;77.188;2022-10-31T11:19:22;222.07;;;159.60;;
26201;SDS011;13944;28.562;77.188;2022-10-31T11:21:50;251.68;;;175.82;;
26201;SDS011;13944;28.562;77.188;2022-10-31T11:24:18;258.88;;;179.65;;
26201;SDS011;13944;28.562;77.188;2022-10-31T11:26:46;260.23;;;181.77;;
26201;SDS011;13944;28.562;77.188;2022-10-31T11:29:23;256.23;;;191.68;;
26201;SDS011;13944;28.562;77.188;2022-10-31T11:31:52;278.45;;;194.50;;
26201;SDS011;13944;28.562;77.188;2022-10-31T11:34:23;266.85;;;188.30;;
26201;SDS011;13944;28.562;77.188;2022-10-31T11:36:52;285.27;;;198.05;;
26201;SDS011;13944;28.562;77.188;2022-10-31T11:39:22;300.15;;;195.05;;
26201;SDS011;13944;28.562;77.188;2022-10-31T11:41:50;289.63;;;200.20;;
26201;SDS011;13944;28.562;77.188;2022-10-31T11:44:22;301.88;;;207.82;;
26201;SDS011;13944;28.562;77.188;2022-10-31T11:46:54;303.23;;;202.68;;
26201;SDS011;13944;28.562;77.188;2022-10-31T11:51:51;278.50;;;197.95;;
26201;SDS011;13944;28.562;77.188;2022-10-31T11:54:23;284.73;;;207.32;;
26201;SDS011;13944;28.562;77.188;2022-10-31T11:56:51;287.95;;;202.75;;
26201;SDS011;13944;28.562;77.188;2022-10-31T11:59:21;297.92;;;224.18;;
26201;SDS011;13944;28.562;77.188;2022-10-31T12:01:50;329.05;;;236.55;;
26201;SDS011;13944;28.562;77.188;2022-10-31T12:04:17;315.80;;;238.60;;
26201;SDS011;13944;28.562;77.188;2022-10-31T12:06:44;338.02;;;249.00;;
26201;SDS011;13944;28.562;77.188;2022-10-31T12:09:22;310.60;;;228.30;;
26201;SDS011;13944;28.562;77.188;2022-10-31T12:12:02;305.25;;;219.68;;
26201;SDS011;13944;28.562;77.188;2022-10-31T12:14:44;295.30;;;223.52;;
26201;SDS011;13944;28.562;77.188;2022-10-31T12:17:16;334.63;;;242.55;;
26201;SDS011;13944;28.562;77.188;2022-10-31T12:20:00;327.73;;;257.35;;
26201;SDS011;13944;28.562;77.188;2022-10-31T12:22:33;333.17;;;250.43;;
26201;SDS011;13944;28.562;77.188;2022-10-31T12:30:13;309.55;;;232.25;;
26201;SDS011;13944;28.562;77.188;2022-10-31T12:32:56;321.30;;;240.98;;
26201;SDS011;13944;28.562;77.188;2022-10-31T12:42:55;319.85;;;237.27;;
26201;SDS011;13944;28.562;77.188;2022-10-31T12:58:27;333.10;;;243.23;;
26201;SDS011;13944;28.562;77.188;2022-10-31T13:01:38;318.10;;;245.18;;
26201;SDS011;13944;28.562;77.188;2022-10-31T13:06:14;322.58;;;246.63;;
26201;SDS011;13944;28.562;77.188;2022-10-31T13:08:53;345.00;;;256.15;;
26201;SDS011;13944;28.562;77.188;2022-10-31T13:11:29;328.20;;;253.85;;
26201;SDS011;13944;28.562;77.188;2022-10-31T13:16:30;339.98;;;254.20;;
26201;SDS011;13944;28.562;77.188;2022-10-31T13:21:30;329.33;;;255.70;;
26201;SDS011;13944;28.562;77.188;2022-10-31T13:24:01;337.25;;;256.75;;
26201;SDS011;13944;28.562;77.188;2022-10-31T13:31:31;352.77;;;268.42;;
26201;SDS011;13944;28.562;77.188;2022-10-31T13:34:01;344.08;;;271.55;;
26201;SDS011;13944;28.562;77.188;2022-10-31T13:36:43;353.83;;;276.13;;
26201;SDS011;13944;28.562;77.188;2022-10-31T13:39:20;352.13;;;274.98;;
26201;SDS011;13944;28.562;77.188;2022-10-31T13:41:54;359.90;;;272.92;;
26201;SDS011;13944;28.562;77.188;2022-10-31T13:44:27;369.23;;;275.13;;
26201;SDS011;13944;28.562;77.188;2022-10-31T13:46:56;367.98;;;277.13;;
26201;SDS011;13944;28.562;77.188;2022-10-31T13:54:38;366.52;;;273.60;;
26201;SDS011;13944;28.562;77.188;2022-10-31T13:57:27;367.58;;;275.35;;
26201;SDS011;13944;28.562;77.188;2022-10-31T13:59:56;367.00;;;275.33;;
26201;SDS011;13944;28.562;77.188;2022-10-31T14:04:57;349.58;;;272.45;;
26201;SDS011;13944;28.562;77.188;2022-10-31T14:07:24;351.02;;;273.55;;
26201;SDS011;13944;28.562;77.188;2022-10-31T14:15:04;365.85;;;278.80;;
26201;SDS011;13944;28.562;77.188;2022-10-31T14:17:36;349.73;;;277.17;;
26201;SDS011;13944;28.562;77.188;2022-10-31T14:22:37;348.50;;;274.93;;
26201;SDS011;13944;28.562;77.188;2022-10-31T14:27:49;346.35;;;276.75;;
26201;SDS011;13944;28.562;77.188;2022-10-31T14:30:18;345.05;;;272.23;;
26201;SDS011;13944;28.562;77.188;2022-10-31T14:32:47;348.13;;;273.17;;
26201;SDS011;13944;28.562;77.188;2022-10-31T14:35:15;347.33;;;278.00;;
26201;SDS011;13944;28.562;77.188;2022-10-31T14:37:56;360.77;;;276.08;;
26201;SDS011;13944;28.562;77.188;2022-10-31T14:40:27;371.15;;;279.75;;
26201;SDS011;13944;28.562;77.188;2022-10-31T14:45:31;369.83;;;275.08;;
26201;SDS011;13944;28.562;77.188;2022-10-31T14:53:04;366.92;;;281.88;;
26201;SDS011;13944;28.562;77.188;2022-10-31T14:55:32;360.10;;;278.90;;
26201;SDS011;13944;28.562;77.188;2022-10-31T14:58:00;371.35;;;283.55;;
26201;SDS011;13944;28.562;77.188;2022-10-31T15:00:27;363.13;;;285.88;;
26201;SDS011;13944;28.562;77.188;2022-10-31T15:03:02;387.15;;;289.70;;
26201;SDS011;13944;28.562;77.188;2022-10-31T15:05:31;378.67;;;287.77;;
26201;SDS011;13944;28.562;77.188;2022-10-31T15:07:58;376.20;;;284.95;;
26201;SDS011;13944;28.562;77.188;2022-10-31T15:10:36;370.13;;;284.65;;
26201;SDS011;13944;28.562;77.188;2022-10-31T15:13:40;367.27;;;286.70;;
26201;SDS011;13944;28.562;77.188;2022-10-31T15:15:55;374.00;;;286.02;;
26201;SDS011;13944;28.562;77.188;2022-10-31T15:18:26;377.85;;;289.80;;
26201;SDS011;13944;28.562;77.188;2022-10-31T15:20:53;367.23;;;283.40;;
26201;SDS011;13944;28.562;77.188;2022-10-31T15:23:24;379.40;;;290.80;;
26201;SDS011;13944;28.562;77.188;2022-10-31T15:25:57;378.15;;;286.63;;
26201;SDS011;13944;28.562;77.188;2022-10-31T15:28:24;377.45;;;282.95;;
26201;SDS011;13944;28.562;77.188;2022-10-31T15:30:52;371.63;;;287.70;;
26201;SDS011;13944;28.562;77.188;2022-10-31T15:33:20;360.98;;;282.77;;
26201;SDS011;13944;28.562;77.188;2022-10-31T15:35:54;364.83;;;280.98;;
26201;SDS011;13944;28.562;77.188;2022-10-31T15:38:21;365.52;;;283.80;;
26201;SDS011;13944;28.562;77.188;2022-10-31T15:40:52;366.57;;;283.07;;
26201;SDS011;13944;28.562;77.188;2022-10-31T15:43:19;386.02;;;287.58;;
26201;SDS011;13944;28.562;77.188;2022-10-31T15:45:46;374.52;;;282.08;;
26201;SDS011;13944;28.562;77.188;2022-10-31T15:48:15;373.57;;;285.70;;
26201;SDS011;13944;28.562;77.188;2022-10-31T15:50:50;361.90;;;283.57;;
26201;SDS011;13944;28.562;77.188;2022-10-31T15:53:26;372.53;;;283.27;;
26201;SDS011;13944;28.562;77.188;2022-10-31T15:55:57;367.47;;;280.73;;
26201;SDS011;13944;28.562;77.188;2022-10-31T15:58:24;358.30;;;282.83;;
26201;SDS011;13944;28.562;77.188;2022-10-31T16:01:02;379.63;;;286.03;;
26201;SDS011;13944;28.562;77.188;2022-10-31T16:03:29;384.43;;;284.73;;
26201;SDS011;13944;28.562;77.188;2022-10-31T16:06:03;371.20;;;281.43;;
26201;SDS011;13944;28.562;77.188;2022-10-31T16:13:26;367.03;;;289.73;;
26201;SDS011;13944;28.562;77.188;2022-10-31T16:15:54;378.13;;;291.23;;
26201;SDS011;13944;28.562;77.188;2022-10-31T16:18:21;386.03;;;292.90;;